Air Navigation Services of Czech Republic
Airport: LKPJ Updated:  21.07.2024 00:30:41  UTC
 METAR LKPJ 21.07. 00:30 ...
METAR LKPJ 210030Z AUTO 31002KT CAVOK 17/13 Q1010=